createdAt,value
2023-04-07T00:00:40.125Z,65.18
2023-04-07T00:03:23.876Z,65.07
2023-04-07T00:05:56.108Z,65.11
2023-04-07T00:08:28.225Z,64.83
2023-04-07T00:11:00.407Z,65.12
2023-04-07T00:13:32.580Z,65.31
2023-04-07T00:16:04.761Z,65.32
2023-04-07T00:18:37.005Z,65.38
2023-04-07T00:21:09.411Z,65.35
2023-04-07T00:23:42.956Z,65.32
2023-04-07T00:26:15.211Z,65.50
2023-04-07T00:28:47.465Z,65.65
2023-04-07T00:31:19.708Z,65.79
2023-04-07T00:33:51.972Z,65.83
2023-04-07T00:36:24.617Z,65.46
2023-04-07T00:38:56.829Z,65.53
2023-04-07T00:41:28.987Z,65.48
2023-04-07T00:44:01.128Z,65.68
2023-04-07T00:46:33.458Z,65.64
2023-04-07T00:49:05.787Z,65.65
2023-04-07T00:51:38.030Z,65.85
2023-04-07T00:54:10.390Z,65.99
2023-04-07T00:56:43.707Z,65.88
2023-04-07T00:59:16.312Z,65.97
2023-04-07T01:01:55.331Z,65.81
2023-04-07T01:04:34.269Z,66.17
2023-04-07T01:07:12.667Z,66.04
2023-04-07T01:09:55.464Z,65.98
2023-04-07T01:12:35.942Z,65.98
2023-04-07T01:15:12.425Z,65.74
2023-04-07T01:17:50.803Z,65.87
2023-04-07T01:20:28.142Z,66.05
2023-04-07T01:23:08.942Z,66.19
2023-04-07T01:26:02.242Z,66.08
2023-04-07T01:29:05.695Z,66.33
2023-04-07T01:31:41.311Z,66.61
2023-04-07T01:34:15.613Z,66.48
2023-04-07T01:36:50.288Z,66.33
2023-04-07T01:39:23.083Z,66.60
2023-04-07T01:41:58.150Z,66.61
2023-04-07T01:44:31.402Z,66.39
2023-04-07T01:47:04.576Z,66.29
2023-04-07T01:49:39.317Z,66.43
2023-04-07T01:52:12.978Z,66.54
2023-04-07T01:54:46.510Z,66.53
2023-04-07T01:57:18.796Z,66.38
2023-04-07T01:59:51.497Z,66.54
2023-04-07T02:02:25.259Z,66.80
2023-04-07T02:05:00.327Z,66.66
2023-04-07T02:07:37.028Z,66.98
2023-04-07T02:10:13.171Z,67.10
2023-04-07T02:12:47.453Z,67.05
2023-04-07T02:15:23.376Z,67.05
2023-04-07T02:17:57.879Z,66.98
2023-04-07T02:20:31.881Z,67.05
2023-04-07T02:23:04.399Z,66.86
2023-04-07T02:25:38.354Z,66.81
2023-04-07T02:28:10.540Z,66.90
2023-04-07T02:30:42.851Z,67.02
2023-04-07T02:33:14.984Z,66.86
2023-04-07T02:35:48.542Z,67.03
2023-04-07T02:38:20.621Z,67.24
2023-04-07T02:40:52.708Z,67.12
2023-04-07T02:43:27.200Z,67.26
2023-04-07T02:45:59.349Z,67.51
2023-04-07T02:48:31.626Z,67.24
2023-04-07T02:51:03.811Z,67.19
2023-04-07T02:53:35.986Z,67.28
2023-04-07T02:56:09.593Z,67.02
2023-04-07T02:58:41.961Z,67.31
2023-04-07T03:01:15.051Z,67.12
2023-04-07T03:03:48.087Z,67.38
2023-04-07T03:06:28.973Z,67.32
2023-04-07T03:09:15.445Z,67.75
2023-04-07T03:11:47.657Z,67.66
2023-04-07T03:14:19.976Z,67.88
2023-04-07T03:16:53.314Z,67.91
2023-04-07T03:19:27.408Z,67.72
2023-04-07T03:21:59.674Z,67.76
2023-04-07T03:24:31.830Z,67.74
2023-04-07T03:27:05.410Z,67.37
2023-04-07T03:29:51.368Z,67.47
2023-04-07T03:32:23.875Z,67.63
2023-04-07T03:34:56.553Z,67.83
2023-04-07T03:37:28.790Z,67.66
2023-04-07T03:40:01.404Z,67.81
2023-04-07T03:42:37.138Z,67.81
2023-04-07T03:45:13.120Z,67.82
2023-04-07T03:47:49.050Z,68.11
2023-04-07T03:50:22.073Z,67.98
2023-04-07T03:52:59.998Z,68.16
2023-04-07T03:55:35.158Z,67.98
2023-04-07T03:58:13.522Z,67.93
2023-04-07T04:00:46.211Z,67.80
2023-04-07T04:03:18.499Z,68.20
2023-04-07T04:06:07.210Z,68.06
2023-04-07T04:08:39.452Z,67.92
2023-04-07T04:11:12.086Z,68.28
2023-04-07T04:13:50.140Z,68.42
2023-04-07T04:16:22.920Z,68.11
2023-04-07T04:18:56.222Z,68.41
2023-04-07T04:21:29.701Z,68.35
2023-04-07T04:24:02.135Z,68.39
2023-04-07T04:26:34.574Z,68.52
2023-04-07T04:29:10.972Z,68.48
2023-04-07T04:31:43.706Z,68.22
2023-04-07T04:34:16.498Z,68.35
2023-04-07T04:36:49.769Z,68.48
2023-04-07T04:39:22.756Z,68.37
2023-04-07T04:41:55.061Z,68.65
2023-04-07T04:44:29.377Z,68.98
2023-04-07T04:47:02.320Z,68.90
2023-04-07T04:49:36.211Z,68.89
2023-04-07T04:52:09.098Z,68.74
2023-04-07T04:54:45.941Z,68.76
2023-04-07T04:57:18.257Z,68.63
2023-04-07T04:59:50.848Z,68.54
2023-04-07T05:02:23.322Z,68.67
2023-04-07T05:04:55.823Z,68.59
2023-04-07T05:07:31.488Z,68.90
2023-04-07T05:10:03.830Z,68.87
2023-04-07T05:12:38.212Z,68.94
2023-04-07T05:15:15.287Z,69.02
2023-04-07T05:17:50.673Z,69.10
2023-04-07T05:20:27.280Z,69.14
2023-04-07T05:23:00.206Z,69.31
2023-04-07T05:25:36.934Z,69.33
2023-04-07T05:28:10.305Z,69.11
2023-04-07T05:30:43.149Z,69.05
2023-04-07T05:33:15.555Z,68.97
2023-04-07T05:35:48.883Z,69.30
2023-04-07T05:38:21.091Z,69.23
2023-04-07T05:40:54.001Z,69.02
2023-04-07T05:43:30.109Z,69.27
2023-04-07T05:46:02.251Z,69.46
2023-04-07T05:48:35.691Z,69.41
2023-04-07T05:51:08.707Z,69.68
2023-04-07T05:53:40.796Z,69.79
2023-04-07T05:56:13.123Z,69.48
2023-04-07T05:58:48.883Z,69.42
2023-04-07T06:01:21.541Z,69.44
2023-04-07T06:03:53.785Z,69.68
2023-04-07T06:06:28.756Z,69.50
2023-04-07T06:09:00.952Z,69.43
2023-04-07T06:11:33.068Z,69.71
2023-04-07T06:14:05.205Z,69.78
2023-04-07T06:16:37.325Z,69.95
2023-04-07T06:19:09.813Z,70.08
2023-04-07T06:21:42.011Z,70.12
2023-04-07T06:24:14.191Z,70.21
2023-04-07T06:26:47.951Z,70.27
2023-04-07T06:29:20.160Z,70.09
2023-04-07T06:31:52.410Z,70.06
2023-04-07T06:34:24.762Z,69.95
2023-04-07T06:36:58.162Z,70.10
2023-04-07T06:39:31.841Z,70.31
2023-04-07T06:42:03.877Z,70.38
2023-04-07T06:44:37.503Z,70.43
2023-04-07T06:47:09.604Z,70.46
2023-04-07T06:49:41.797Z,70.68
2023-04-07T06:52:13.945Z,70.82
2023-04-07T06:54:46.126Z,70.78
2023-04-07T06:57:18.283Z,70.63
2023-04-07T06:59:50.584Z,70.74
2023-04-07T07:02:22.935Z,70.72
2023-04-07T07:04:55.148Z,70.66
2023-04-07T07:07:27.320Z,70.69
2023-04-07T07:09:59.482Z,70.86
2023-04-07T07:12:32.504Z,71.02
2023-04-07T07:15:04.986Z,71.01
2023-04-07T07:17:37.189Z,71.01
2023-04-07T07:20:12.011Z,71.27
2023-04-07T07:22:44.090Z,71.23
2023-04-07T07:25:16.701Z,71.37
2023-04-07T07:27:52.273Z,71.48
2023-04-07T07:30:26.298Z,71.51
2023-04-07T07:32:58.732Z,71.63
2023-04-07T07:35:32.805Z,71.25
2023-04-07T07:38:05.046Z,71.43
2023-04-07T07:40:37.210Z,71.55
2023-04-07T07:43:09.344Z,71.78
2023-04-07T07:45:41.474Z,71.76
2023-04-07T07:48:13.654Z,71.83
2023-04-07T07:50:45.955Z,71.99
2023-04-07T07:53:18.108Z,71.91
2023-04-07T07:55:50.370Z,71.94
2023-04-07T07:58:22.471Z,72.12
2023-04-07T08:00:54.875Z,72.07
2023-04-07T08:03:27.035Z,72.22
2023-04-07T08:05:59.384Z,72.07
2023-04-07T08:08:31.539Z,72.11
2023-04-07T08:11:03.886Z,72.24
2023-04-07T08:13:36.051Z,72.28
2023-04-07T08:16:08.930Z,72.43
2023-04-07T08:18:41.118Z,72.42
2023-04-07T08:21:13.197Z,72.46
2023-04-07T08:23:46.593Z,72.63
2023-04-07T08:26:18.758Z,72.59
2023-04-07T08:28:52.401Z,72.65
2023-04-07T08:31:24.600Z,72.66
2023-04-07T08:33:58.483Z,72.70
2023-04-07T08:36:31.630Z,72.49
2023-04-07T08:39:05.773Z,72.47
2023-04-07T08:41:41.002Z,72.46
2023-04-07T08:44:14.288Z,72.51
2023-04-07T08:46:48.178Z,72.68
2023-04-07T08:49:21.352Z,72.92
2023-04-07T08:51:56.088Z,72.90
2023-04-07T08:54:27.349Z,73.19
2023-04-07T08:56:59.662Z,73.09
2023-04-07T08:59:33.888Z,73.10
2023-04-07T09:02:08.229Z,72.95
2023-04-07T09:04:40.575Z,72.95
2023-04-07T09:07:12.731Z,73.02
2023-04-07T09:09:44.841Z,73.16
2023-04-07T09:12:17.009Z,73.13
2023-04-07T09:14:49.080Z,73.26
2023-04-07T09:17:21.450Z,73.36
2023-04-07T09:19:54.038Z,73.41
2023-04-07T09:22:40.229Z,73.41
2023-04-07T09:25:18.648Z,73.53
2023-04-07T09:28:05.825Z,73.67
2023-04-07T09:30:37.974Z,73.73
2023-04-07T09:33:14.334Z,73.83
2023-04-07T09:35:56.199Z,73.73
2023-04-07T09:38:36.341Z,73.54
2023-04-07T09:41:13.154Z,73.30
2023-04-07T09:43:47.257Z,73.51
2023-04-07T09:46:20.245Z,73.56
2023-04-07T09:49:06.014Z,73.86
2023-04-07T09:51:38.335Z,74.09
2023-04-07T09:54:10.751Z,74.21
2023-04-07T09:56:42.920Z,74.56
2023-04-07T09:59:17.655Z,74.66
2023-04-07T10:01:50.087Z,74.65
2023-04-07T10:04:23.447Z,74.73
2023-04-07T10:06:56.499Z,74.47
2023-04-07T10:09:30.269Z,74.48
2023-04-07T10:12:03.005Z,74.20
2023-04-07T10:14:37.547Z,74.38
2023-04-07T10:17:12.390Z,74.32
2023-04-07T10:19:44.653Z,74.50
2023-04-07T10:22:18.937Z,74.34
2023-04-07T10:24:56.826Z,74.78
2023-04-07T10:27:38.341Z,74.94
2023-04-07T10:30:19.843Z,74.80
2023-04-07T10:32:54.363Z,74.77
2023-04-07T10:35:27.144Z,74.71
2023-04-07T10:38:16.826Z,74.61
2023-04-07T10:40:49.033Z,74.96
2023-04-07T10:43:41.634Z,74.94
2023-04-07T10:46:13.790Z,75.04
2023-04-07T10:49:05.964Z,75.14
2023-04-07T10:51:40.867Z,75.53
2023-04-07T10:54:18.991Z,75.73
2023-04-07T10:57:10.728Z,75.81
2023-04-07T11:00:04.710Z,75.86
2023-04-07T11:02:39.627Z,75.95
2023-04-07T11:05:23.878Z,75.79
2023-04-07T11:07:58.467Z,75.98
2023-04-07T11:10:30.894Z,75.84
2023-04-07T11:13:05.635Z,75.84
2023-04-07T11:15:40.730Z,75.75
2023-04-07T11:18:16.342Z,75.91
2023-04-07T11:20:53.857Z,75.86
2023-04-07T11:23:27.506Z,76.18
2023-04-07T11:26:04.384Z,76.13
2023-04-07T11:28:37.999Z,76.04
2023-04-07T11:31:10.505Z,76.10
2023-04-07T11:33:43.709Z,76.02
2023-04-07T11:36:15.957Z,75.67
2023-04-07T11:38:48.109Z,75.86
2023-04-07T11:41:20.208Z,75.90
2023-04-07T11:44:04.594Z,75.78
2023-04-07T11:46:37.415Z,75.96
2023-04-07T11:49:14.697Z,76.08
2023-04-07T11:51:47.629Z,76.12
2023-04-07T11:54:20.066Z,76.10
2023-04-07T11:56:55.630Z,75.96
2023-04-07T11:59:29.222Z,75.90
2023-04-07T12:02:02.152Z,75.77
2023-04-07T12:04:36.665Z,75.67
2023-04-07T12:07:12.849Z,75.44
2023-04-07T12:09:44.950Z,75.58
2023-04-07T12:12:26.374Z,75.49
2023-04-07T12:14:58.891Z,75.48
2023-04-07T12:17:31.285Z,75.63
2023-04-07T12:20:03.711Z,75.72
2023-04-07T12:22:35.908Z,75.63
2023-04-07T12:25:09.281Z,75.64
2023-04-07T12:27:43.593Z,75.49
2023-04-07T12:30:14.949Z,75.65
2023-04-07T12:32:47.714Z,75.85
2023-04-07T12:35:19.943Z,75.82
2023-04-07T12:37:53.076Z,75.86
2023-04-07T12:40:26.433Z,75.65
2023-04-07T12:42:59.427Z,75.62
2023-04-07T12:45:32.126Z,75.73
2023-04-07T12:48:04.408Z,75.70
2023-04-07T12:50:38.160Z,75.74
2023-04-07T12:53:10.262Z,75.60
2023-04-07T12:55:42.689Z,75.28
2023-04-07T12:58:14.925Z,75.34
2023-04-07T13:00:48.701Z,75.48
2023-04-07T13:03:21.174Z,75.44
2023-04-07T13:05:55.177Z,75.42
2023-04-07T13:08:27.377Z,75.52
2023-04-07T13:10:59.728Z,75.49
2023-04-07T13:13:31.953Z,75.43
2023-04-07T13:16:04.379Z,75.41
2023-04-07T13:18:36.798Z,75.35
2023-04-07T13:23:44.270Z,74.94
2023-04-07T13:26:16.308Z,74.90
2023-04-07T13:28:48.724Z,74.80
2023-04-07T13:31:22.197Z,74.99
2023-04-07T13:33:54.449Z,75.07
2023-04-07T13:36:28.530Z,75.12
2023-04-07T13:39:00.850Z,75.06
2023-04-07T13:41:33.105Z,75.13
2023-04-07T13:44:05.224Z,75.17
2023-04-07T13:46:38.235Z,75.00
2023-04-07T13:49:10.758Z,75.02
2023-04-07T13:51:42.860Z,74.88
2023-04-07T13:54:15.010Z,74.89
2023-04-07T13:56:49.132Z,75.01
2023-04-07T13:59:21.600Z,75.11
2023-04-07T14:01:53.802Z,75.24
2023-04-07T14:04:26.071Z,75.32
2023-04-07T14:06:58.387Z,75.40
2023-04-07T14:09:30.595Z,75.51
2023-04-07T14:12:02.690Z,75.53
2023-04-07T14:14:37.275Z,75.47
2023-04-07T14:17:09.368Z,75.24
2023-04-07T14:19:42.317Z,75.23
2023-04-07T14:22:14.983Z,75.31
2023-04-07T14:24:47.150Z,75.27
2023-04-07T14:27:21.223Z,75.40
2023-04-07T14:29:55.299Z,75.56
2023-04-07T14:32:29.618Z,75.58
2023-04-07T14:35:01.366Z,75.69
2023-04-07T14:37:33.456Z,75.84
2023-04-07T14:40:06.336Z,75.78
2023-04-07T14:42:39.269Z,76.06
2023-04-07T14:45:13.964Z,75.86
2023-04-07T14:47:46.257Z,75.92
2023-04-07T14:50:18.787Z,75.83
2023-04-07T14:52:50.927Z,76.20
2023-04-07T14:55:23.329Z,76.09
2023-04-07T14:57:55.559Z,76.36
2023-04-07T15:00:28.944Z,76.47
2023-04-07T15:03:01.205Z,76.65
2023-04-07T15:05:33.755Z,76.81
2023-04-07T15:08:06.380Z,76.96
2023-04-07T15:10:40.623Z,77.12
2023-04-07T15:13:13.012Z,77.21
2023-04-07T15:15:45.163Z,77.15
2023-04-07T15:18:17.424Z,76.80
2023-04-07T15:20:49.724Z,76.94
2023-04-07T15:23:21.799Z,76.96
2023-04-07T15:25:56.346Z,76.92
2023-04-07T15:28:28.493Z,76.94
2023-04-07T15:31:00.729Z,76.98
2023-04-07T15:33:32.820Z,77.07
2023-04-07T15:36:05.267Z,77.12
2023-04-07T15:38:38.936Z,77.18
2023-04-07T15:41:10.986Z,77.38
2023-04-07T15:43:43.167Z,77.46
2023-04-07T15:46:15.505Z,77.62
2023-04-07T15:48:48.119Z,77.73
2023-04-07T15:51:20.407Z,77.59
2023-04-07T15:53:52.634Z,77.60
2023-04-07T15:56:25.097Z,77.59
2023-04-07T15:58:57.130Z,77.66
2023-04-07T16:01:29.998Z,77.52
2023-04-07T16:04:02.610Z,77.56
2023-04-07T16:06:34.884Z,77.70
2023-04-07T16:09:07.322Z,78.00
2023-04-07T16:11:39.583Z,77.92
2023-04-07T16:14:11.741Z,78.12
2023-04-07T16:16:44.781Z,78.18
2023-04-07T16:19:17.425Z,78.09
2023-04-07T16:21:49.571Z,78.07
2023-04-07T16:24:21.756Z,78.15
2023-04-07T16:26:55.979Z,78.08
2023-04-07T16:29:28.334Z,78.31
2023-04-07T16:32:00.666Z,78.39
2023-04-07T16:34:33.002Z,78.42
2023-04-07T16:37:05.236Z,78.37
2023-04-07T16:39:37.355Z,78.55
2023-04-07T16:42:09.498Z,78.79
2023-04-07T16:44:41.554Z,79.00
2023-04-07T16:47:13.665Z,79.00
2023-04-07T16:49:46.028Z,78.92
2023-04-07T16:52:20.408Z,78.86
2023-04-07T16:54:52.728Z,79.14
2023-04-07T16:57:25.506Z,79.20
2023-04-07T16:59:57.646Z,79.12
2023-04-07T17:02:29.841Z,79.29
2023-04-07T17:05:02.013Z,79.35
2023-04-07T17:07:34.172Z,79.21
2023-04-07T17:10:06.938Z,79.31
2023-04-07T17:12:38.939Z,79.50
2023-04-07T17:15:13.696Z,79.62
2023-04-07T17:17:44.314Z,79.44
2023-04-07T17:20:18.694Z,79.60
2023-04-07T17:22:51.356Z,79.35
2023-04-07T17:25:23.478Z,79.38
2023-04-07T17:27:56.166Z,79.44
2023-04-07T17:30:28.505Z,79.40
2023-04-07T17:33:00.698Z,79.44
2023-04-07T17:35:32.969Z,79.65
2023-04-07T17:38:05.652Z,79.67
2023-04-07T17:40:37.731Z,79.96
2023-04-07T17:43:09.905Z,79.93
2023-04-07T17:45:41.997Z,79.97
2023-04-07T17:48:14.295Z,80.15
2023-04-07T17:50:46.926Z,80.09
2023-04-07T17:53:20.044Z,79.87
2023-04-07T17:55:52.197Z,79.85
2023-04-07T17:58:24.342Z,79.70
2023-04-07T18:00:56.581Z,79.94
2023-04-07T18:03:28.920Z,79.83
2023-04-07T18:06:01.326Z,79.80
2023-04-07T18:08:33.712Z,79.88
2023-04-07T18:11:07.182Z,79.95
2023-04-07T18:13:39.366Z,80.05
2023-04-07T18:16:13.388Z,80.36
2023-04-07T18:18:46.496Z,80.37
2023-04-07T18:21:18.670Z,80.46
2023-04-07T18:23:51.041Z,79.83
2023-04-07T18:26:23.768Z,79.99
2023-04-07T18:28:55.912Z,80.16
2023-04-07T18:31:28.051Z,80.33
2023-04-07T18:34:00.167Z,80.42
2023-04-07T18:36:32.329Z,80.46
2023-04-07T18:39:04.819Z,80.39
2023-04-07T18:41:36.944Z,80.79
2023-04-07T18:44:09.078Z,80.94
2023-04-07T18:46:41.580Z,80.95
2023-04-07T18:49:13.835Z,80.94
2023-04-07T18:51:46.987Z,80.61
2023-04-07T18:54:19.104Z,80.75
2023-04-07T18:56:51.659Z,80.76
2023-04-07T18:59:23.760Z,80.74
2023-04-07T19:01:56.801Z,80.85
2023-04-07T19:04:29.184Z,81.09
2023-04-07T19:07:01.244Z,81.05
2023-04-07T19:09:33.688Z,81.12
2023-04-07T19:12:07.430Z,81.09
2023-04-07T19:14:39.477Z,81.13
2023-04-07T19:17:12.782Z,80.94
2023-04-07T19:19:44.951Z,80.75
2023-04-07T19:22:17.742Z,80.88
2023-04-07T19:24:49.870Z,80.76
2023-04-07T19:27:22.860Z,80.84
2023-04-07T19:29:55.009Z,80.90
2023-04-07T19:32:27.408Z,81.22
2023-04-07T19:34:59.506Z,81.32
2023-04-07T19:37:31.605Z,81.33
2023-04-07T19:40:05.270Z,81.34
2023-04-07T19:42:39.314Z,81.27
2023-04-07T19:45:12.916Z,80.92
2023-04-07T19:47:45.321Z,81.10
2023-04-07T19:50:17.792Z,80.98
2023-04-07T19:52:50.826Z,81.08
2023-04-07T19:55:23.502Z,81.24
2023-04-07T19:57:55.607Z,81.28
2023-04-07T20:00:31.056Z,81.29
2023-04-07T20:03:04.723Z,81.40
2023-04-07T20:05:38.380Z,81.30
2023-04-07T20:08:10.756Z,81.35
2023-04-07T20:10:42.895Z,81.33
2023-04-07T20:13:15.080Z,80.77
2023-04-07T20:15:49.150Z,80.80
2023-04-07T20:18:21.550Z,80.82
2023-04-07T20:21:01.315Z,80.75
2023-04-07T20:23:33.757Z,80.62
2023-04-07T20:26:07.097Z,80.89
2023-04-07T20:28:39.295Z,81.06
2023-04-07T20:31:11.545Z,80.99
2023-04-07T20:33:43.896Z,81.02
2023-04-07T20:36:16.271Z,80.95
2023-04-07T20:38:49.841Z,80.70
2023-04-07T20:41:23.807Z,80.59
2023-04-07T20:43:56.014Z,80.57
2023-04-07T20:46:30.037Z,80.64
2023-04-07T20:49:02.284Z,80.53
2023-04-07T20:51:35.086Z,80.51
2023-04-07T20:54:07.941Z,80.61
2023-04-07T20:56:40.104Z,80.61
2023-04-07T20:59:12.216Z,80.73
2023-04-07T21:01:44.778Z,80.93
2023-04-07T21:04:17.176Z,80.65
2023-04-07T21:06:49.355Z,80.42
2023-04-07T21:09:21.554Z,80.36
2023-04-07T21:11:53.877Z,80.43
2023-04-07T21:14:25.974Z,80.34
2023-04-07T21:16:58.120Z,80.42
2023-04-07T21:19:30.738Z,80.48
2023-04-07T21:22:02.875Z,80.53
2023-04-07T21:24:35.513Z,80.64
2023-04-07T21:27:07.923Z,80.58
2023-04-07T21:29:42.486Z,80.60
2023-04-07T21:32:17.700Z,80.36
2023-04-07T21:34:52.680Z,79.92
2023-04-07T21:37:25.028Z,79.86
2023-04-07T21:39:58.033Z,79.84
2023-04-07T21:42:30.314Z,79.81
2023-04-07T21:45:02.454Z,79.85
2023-04-07T21:47:34.572Z,80.15
2023-04-07T21:50:08.719Z,80.01
2023-04-07T21:52:42.780Z,79.97
2023-04-07T21:55:15.201Z,79.86
2023-04-07T21:57:47.988Z,79.80
2023-04-07T22:00:20.569Z,79.79
2023-04-07T22:02:53.376Z,79.38
2023-04-07T22:05:26.032Z,79.49
2023-04-07T22:07:58.662Z,79.45
2023-04-07T22:10:31.080Z,79.38
2023-04-07T22:13:03.819Z,79.54
2023-04-07T22:15:36.406Z,79.49
2023-04-07T22:18:08.741Z,79.63
2023-04-07T22:20:41.493Z,79.54
2023-04-07T22:23:13.986Z,79.55
2023-04-07T22:25:46.110Z,79.48
2023-04-07T22:28:18.394Z,78.93
2023-04-07T22:30:50.516Z,79.08
2023-04-07T22:33:22.651Z,79.02
2023-04-07T22:35:54.765Z,79.09
2023-04-07T22:38:27.169Z,79.07
2023-04-07T22:40:59.398Z,79.08
2023-04-07T22:43:31.644Z,79.25
2023-04-07T22:46:03.706Z,79.23
2023-04-07T22:48:36.025Z,79.08
2023-04-07T22:51:08.281Z,79.12
2023-04-07T22:53:40.916Z,79.17
2023-04-07T22:56:13.550Z,78.97
2023-04-07T22:58:45.680Z,78.72
2023-04-07T23:01:18.166Z,78.68
2023-04-07T23:03:50.609Z,78.63
2023-04-07T23:06:22.968Z,78.76
2023-04-07T23:08:55.095Z,78.75
2023-04-07T23:11:27.435Z,78.85
2023-04-07T23:13:59.784Z,78.80
2023-04-07T23:16:31.948Z,78.92
2023-04-07T23:19:04.150Z,78.89
2023-04-07T23:21:36.154Z,78.89
2023-04-07T23:24:08.381Z,78.68
2023-04-07T23:26:40.539Z,78.60
2023-04-07T23:29:12.913Z,78.25
2023-04-07T23:31:44.992Z,78.47
2023-04-07T23:34:17.122Z,78.32
2023-04-07T23:36:49.298Z,78.25
2023-04-07T23:39:21.430Z,78.26
2023-04-07T23:41:53.539Z,78.35
2023-04-07T23:44:25.840Z,78.50
2023-04-07T23:46:57.893Z,78.49
2023-04-07T23:49:29.940Z,78.53
2023-04-07T23:52:02.632Z,78.48
2023-04-07T23:54:34.801Z,78.52
2023-04-07T23:57:06.949Z,78.42
2023-04-07T23:59:39.127Z,78.18
